Login to view Products
 
Saturday, August 08, 2020 (08:56 UTC)
Al Maktoum International Airport
Last Updated: 08-Aug-2020 (08:55Z)
Wind Dir/Speed: W at 11 kt
Temperature: 40.6°C
Rel. Humidity: 31 %
Pressure: 995.1 hPa
Visibility: 10000 m
  • METAR OMDW 080830Z 26011KT 220V280 CAVOK 41/21 Q0995 NOSIG
  • TAF OMDW 080450Z 0806/0912 24008KT 8000 NSC BECMG 0806/0808 30014KT BECMG 0815/0817 VRB02KT PROB30 0823/0904 4000 HZ BKN012 BECMG 0906/0908 32013KT=
D:\Input Parser\Destinations\Final\04\OMDWL06120450356465930.txt
1